Time;durP1;ratioP1;P1;durP2;ratioP2;P2;SDS_P1;SDS_P2;PMS_P1;PMS_P2;Temp;Humidity;BMP_temperature;BMP_pressure;BME280_temperature;BME280_humidity;BME280_pressure;Samples;Min_cycle;Max_cycle;Signal;HPM_P1;HPM_P2
2022/12/22 03:27:31;;;;;;;9.90;8.82;;;;;;;8.27;100.00;100199.75;5115899;28;20046;-37
2022/12/22 03:29:56;;;;;;;9.70;8.80;;;;;;;8.34;100.00;100203.13;5115361;28;20387;-37
2022/12/22 03:32:21;;;;;;;9.47;8.57;;;;;;;8.31;100.00;100203.63;5115887;28;20463;-37
2022/12/22 03:34:46;;;;;;;11.00;10.00;;;;;;;8.34;100.00;100205.84;5115708;28;20463;-37
2022/12/22 03:37:12;;;;;;;11.27;10.17;;;;;;;8.32;100.00;100202.56;5114212;28;20476;-37
2022/12/22 03:39:37;;;;;;;8.37;7.57;;;;;;;8.32;100.00;100194.47;5115269;28;20028;-37
2022/12/22 03:47:30;;;;;;;8.45;7.75;;;;;;;8.27;100.00;100181.72;5115087;28;20046;-37
2022/12/22 03:49:56;;;;;;;9.15;8.25;;;;;;;8.26;100.00;100185.47;5115780;28;20020;-37
2022/12/22 03:52:21;;;;;;;6.63;6.13;;;;;;;8.23;100.00;100179.72;5115256;28;20411;-37
2022/12/22 03:54:47;;;;;;;7.27;6.57;;;;;;;8.24;100.00;100182.16;5115525;28;20035;-37
2022/12/22 03:57:12;;;;;;;5.17;4.73;;;;;;;8.23;100.00;100177.00;5115207;28;20293;-37
2022/12/22 03:59:37;;;;;;;8.07;7.37;;;;;;;8.16;100.00;100152.06;5115348;28;20355;-37
2022/12/22 04:02:02;;;;;;;8.30;7.60;;;;;;;8.19;100.00;100154.28;5114815;27;20483;-37
2022/12/22 04:04:28;;;;;;;6.73;6.20;;;;;;;8.25;100.00;100174.94;5115707;28;20456;-37
2022/12/22 04:06:53;;;;;;;7.00;6.40;;;;;;;8.20;100.00;100158.63;5114686;28;20114;-37
2022/12/22 04:09:21;;;;;;;6.55;6.00;;;;;;;8.25;100.00;100161.47;5115103;28;20081;-37
2022/12/22 04:14:30;;;;;;;7.18;5.72;;;;;;;8.22;100.00;100154.66;5115206;28;20038;-37
2022/12/22 04:16:55;;;;;;;10.80;7.87;;;;;;;8.21;100.00;100150.31;5114344;28;20023;-37
2022/12/22 04:19:20;;;;;;;7.77;7.07;;;;;;;8.24;100.00;100155.22;5114521;28;20024;-37
2022/12/22 04:21:45;;;;;;;8.53;7.77;;;;;;;8.23;100.00;100153.59;5114594;28;20024;-37
2022/12/22 04:24:12;;;;;;;9.57;8.77;;;;;;;8.27;100.00;100162.03;5114589;28;20024;-37
2022/12/22 04:26:37;;;;;;;;;;;;;;;8.31;100.00;100163.22;5114923;28;20035;-37
2022/12/22 04:29:03;;;;;;;8.95;8.15;;;;;;;8.19;100.00;100146.19;5115054;28;19943;-37
2022/12/22 04:31:28;;;;;;;10.10;9.20;;;;;;;8.27;100.00;100167.41;5114441;28;20028;-37
2022/12/22 04:33:53;;;;;;;10.07;9.17;;;;;;;8.27;100.00;100179.00;5114549;28;20024;-37
2022/12/22 04:36:19;;;;;;;9.83;8.93;;;;;;;8.29;100.00;100184.16;5114036;28;20111;-37
2022/12/22 04:38:44;;;;;;;8.53;7.83;;;;;;;8.27;100.00;100183.59;5114287;28;20040;-37
2022/12/22 04:41:10;;;;;;;8.93;8.13;;;;;;;8.27;100.00;100181.72;5114127;28;20309;-37
2022/12/22 04:43:36;;;;;;;39.83;12.68;;;;;;;8.22;100.00;100178.06;5114749;28;20468;-37
2022/12/22 04:46:01;;;;;;;10.68;9.65;;;;;;;8.16;100.00;100169.03;5114141;28;20143;-37
2022/12/22 04:48:28;;;;;;;11.02;9.50;;;;;;;8.10;100.00;100150.28;5114658;28;20036;-37
2022/12/22 04:50:56;;;;;;;9.95;9.05;;;;;;;8.21;100.00;100171.88;5113984;28;20053;-38
2022/12/22 04:53:22;;;;;;;15.18;10.30;;;;;;;8.13;100.00;100147.13;5114037;28;20395;-38
2022/12/22 04:55:50;;;;;;;17.65;9.48;;;;;;;8.21;100.00;100165.66;5113908;28;20049;-38
2022/12/22 04:58:15;;;;;;;18.70;10.13;;;;;;;8.23;100.00;100171.63;5114668;28;20378;-38
2022/12/22 05:00:41;;;;;;;18.23;10.38;;;;;;;8.20;100.00;100177.50;5113844;28;20084;-38
2022/12/22 05:03:07;;;;;;;17.70;10.20;;;;;;;8.26;100.00;100195.41;5113878;28;20024;-38
2022/12/22 05:05:34;;;;;;;16.92;10.00;;;;;;;8.25;100.00;100183.81;5114297;28;20020;-38
2022/12/22 05:07:59;;;;;;;10.13;9.23;;;;;;;8.24;100.00;100182.16;5113241;28;20492;-38
2022/12/22 05:10:24;;;;;;;17.63;10.60;;;;;;;8.26;100.00;100171.16;5112091;28;20126;-38
2022/12/22 05:12:56;;;;;;;20.53;9.63;;;;;;;8.21;100.00;100171.06;5113757;28;20047;-38
2022/12/22 05:15:29;;;;;;;10.05;9.15;;;;;;;8.23;100.00;100179.72;5113522;28;20468;-38
2022/12/22 05:17:56;;;;;;;10.85;9.73;;;;;;;8.25;100.00;100172.22;5113753;28;20393;-37
2022/12/22 05:20:22;;;;;;;12.48;9.95;;;;;;;8.28;100.00;100177.13;5113596;28;20066;-38
2022/12/22 05:22:48;;;;;;;10.00;9.00;;;;;;;8.27;100.00;100184.41;5113848;27;20407;-38
2022/12/22 05:25:18;;;;;;;23.92;10.57;;;;;;;8.26;100.00;100184.63;5113144;28;20036;-38
2022/12/22 05:27:45;;;;;;;18.75;10.50;;;;;;;8.31;100.00;100195.53;5114209;28;20035;-38
2022/12/22 05:30:11;;;;;;;10.60;9.43;;;;;;;8.30;100.00;100196.59;5113428;28;20028;-37
2022/12/22 05:32:37;;;;;;;;;;;;;;;8.37;100.00;100193.81;5113806;28;20430;-38
2022/12/22 05:35:02;;;;;;;11.73;9.93;;;;;;;8.33;100.00;100206.06;5113447;28;19934;-38
2022/12/22 05:37:28;;;;;;;20.65;11.02;;;;;;;8.26;100.00;100188.16;5113046;28;20795;-38
2022/12/22 05:39:54;;;;;;;20.58;11.57;;;;;;;8.34;100.00;100191.53;5113576;28;20019;-38
2022/12/22 05:42:34;;;;;;;13.98;11.32;;;;;;;8.34;100.00;100205.84;5113310;28;20375;-38
2022/12/22 05:45:02;;;;;;;23.77;11.98;;;;;;;8.34;100.00;100196.94;5113649;28;20031;-38
2022/12/22 05:47:27;;;;;;;11.55;10.35;;;;;;;8.27;100.00;100191.66;5113181;28;20061;-38
2022/12/22 05:49:53;;;;;;;13.73;11.37;;;;;;;8.31;100.00;100203.63;5112977;28;20024;-38
2022/12/22 05:52:18;;;;;;;24.97;13.47;;;;;;;8.30;100.00;100202.00;5113523;28;20097;-37
2022/12/22 05:54:43;;;;;;;13.37;11.67;;;;;;;8.36;100.00;100219.09;5113714;28;20023;-37
2022/12/22 05:57:09;;;;;;;17.60;12.43;;;;;;;8.29;100.00;100207.59;5113163;28;20024;-37
2022/12/22 05:59:34;;;;;;;22.47;13.40;;;;;;;8.38;100.00;100227.78;5113393;28;20340;-37
2022/12/22 06:01:59;;;;;;;16.90;12.40;;;;;;;8.38;100.00;100231.28;5113094;28;20028;-37
2022/12/22 06:04:24;;;;;;;22.57;12.40;;;;;;;8.33;100.00;100227.63;5113337;28;20016;-37
2022/12/22 06:06:50;;;;;;;15.77;13.53;;;;;;;8.39;100.00;100246.41;5112817;28;20541;-37
2022/12/22 06:09:15;;;;;;;14.33;12.93;;;;;;;8.34;100.00;100238.16;5113588;28;20028;-37
2022/12/22 06:11:40;;;;;;;14.43;12.93;;;;;;;8.41;100.00;100247.00;5113311;28;20080;-37
2022/12/22 06:14:06;;;;;;;13.57;12.20;;;;;;;8.41;100.00;100248.88;5113646;28;20034;-37
2022/12/22 06:16:31;;;;;;;13.63;12.23;;;;;;;8.35;100.00;100245.22;5113641;28;20055;-37
2022/12/22 06:18:56;;;;;;;14.03;12.63;;;;;;;8.41;100.00;100257.78;5113220;28;20065;-37
2022/12/22 06:21:22;;;;;;;13.67;12.30;;;;;;;8.41;100.00;100263.19;5112876;28;20084;-37
2022/12/22 06:23:47;;;;;;;14.43;12.93;;;;;;;8.37;100.00;100256.59;5112979;28;20464;-37
2022/12/22 06:26:12;;;;;;;14.90;13.37;;;;;;;8.43;100.00;100268.31;5112580;28;20034;-37
2022/12/22 06:28:38;;;;;;;16.20;14.33;;;;;;;8.38;100.00;100258.25;5112926;28;20536;-37
2022/12/22 06:31:03;;;;;;;16.37;14.43;;;;;;;8.43;100.00;100273.72;5112831;28;20440;-37
2022/12/22 06:33:28;;;;;;;17.27;14.50;;;;;;;8.44;100.00;100272.66;5113139;28;20073;-37
2022/12/22 06:35:54;;;;;;;19.07;15.13;;;;;;;8.43;100.00;100277.22;5112726;28;20039;-37
2022/12/22 06:38:19;;;;;;;20.67;16.43;;;;;;;8.37;100.00;100267.38;5112943;28;20471;-37
2022/12/22 06:40:46;;;;;;;21.50;16.20;;;;;;;8.36;100.00;100287.28;5112752;28;20062;-37
2022/12/22 06:43:11;;;;;;;25.98;18.20;;;;;;;8.44;100.00;100303.16;5113008;28;20028;-37
2022/12/22 06:45:39;;;;;;;28.80;19.40;;;;;;;8.43;100.00;100309.56;5112763;28;20031;-37
2022/12/22 06:48:05;;;;;;;28.20;19.38;;;;;;;8.41;100.00;100303.59;5113412;28;20363;-37
2022/12/22 06:50:31;;;;;;;29.48;20.08;;;;;;;8.43;100.00;100304.16;5113325;28;20370;-37
2022/12/22 06:52:56;;;;;;;28.47;19.23;;;;;;;8.42;100.00;100302.53;5113321;28;20118;-38
2022/12/22 06:55:22;;;;;;;33.83;20.73;;;;;;;8.43;100.00;100314.13;5112808;28;20310;-37
2022/12/22 06:57:47;;;;;;;34.40;21.37;;;;;;;8.29;100.00;100302.69;5112933;28;20107;-37
2022/12/22 07:00:13;;;;;;;32.23;22.17;;;;;;;8.41;100.00;100332.41;5112948;28;20032;-37
2022/12/22 07:02:38;;;;;;;36.83;22.60;;;;;;;8.40;100.00;100346.94;5116475;28;20031;-37
2022/12/22 07:05:04;;;;;;;36.83;22.27;;;;;;;8.38;100.00;100338.25;5116715;28;20024;-37
2022/12/22 07:07:29;;;;;;;39.78;23.95;;;;;;;8.38;100.00;100344.44;5116538;28;20031;-37
2022/12/22 07:09:55;;;;;;;39.17;24.67;;;;;;;8.38;100.00;100344.44;5115768;28;20388;-37
2022/12/22 07:12:21;;;;;;;38.90;24.42;;;;;;;8.37;100.00;100348.19;5115690;28;20027;-37
2022/12/22 07:14:47;;;;;;;41.08;24.55;;;;;;;8.36;100.00;100354.66;5115696;28;20038;-37
2022/12/22 07:17:12;;;;;;;47.03;26.43;;;;;;;8.27;100.00;100343.34;5115524;28;20112;-37
2022/12/22 07:19:37;;;;;;;42.07;27.03;;;;;;;8.33;100.00;100363.13;5116412;28;20122;-37
2022/12/22 07:22:03;;;;;;;41.40;26.07;;;;;;;8.25;100.00;100342.75;5115994;28;20081;-37
2022/12/22 07:24:28;;;;;;;39.63;25.70;;;;;;;8.21;100.00;100338.84;5115835;28;20068;-37
2022/12/22 07:26:53;;;;;;;40.73;25.80;;;;;;;8.26;100.00;100357.03;5115347;28;20077;-37
2022/12/22 07:29:19;;;;;;;41.93;26.63;;;;;;;8.22;100.00;100345.88;5116241;28;20327;-37
2022/12/22 07:31:44;;;;;;;35.07;22.97;;;;;;;8.21;100.00;100352.31;5115445;28;20024;-37
2022/12/22 07:34:10;;;;;;;43.67;26.63;;;;;;;8.13;100.00;100358.00;5115503;28;20027;-37
2022/12/22 07:36:35;;;;;;;41.35;24.65;;;;;;;8.10;100.00;100357.63;5115695;28;20141;-37
2022/12/22 07:39:01;;;;;;;41.33;25.57;;;;;;;8.17;100.00;100366.47;5115280;28;20051;-37
2022/12/22 07:44:10;;;;;;;42.20;26.30;;;;;;;8.17;100.00;100375.38;5115398;28;20039;-36
2022/12/22 07:46:37;;;;;;;41.60;25.50;;;;;;;8.16;100.00;100389.91;5115763;28;20020;-37
2022/12/22 07:51:48;;;;;;;42.30;25.70;;;;;;;8.11;100.00;100405.09;5115554;28;20096;-36
2022/12/22 07:54:15;;;;;;;44.87;25.73;;;;;;;8.15;100.00;100408.94;5115633;28;20031;-37
2022/12/22 07:56:42;;;;;;;43.95;25.52;;;;;;;8.12;100.00;100415.63;5114975;28;20026;-37
2022/12/22 07:59:07;;;;;;;34.97;22.70;;;;;;;8.12;100.00;100430.97;5115097;28;20081;-37
2022/12/22 08:01:33;;;;;;;38.50;22.73;;;;;;;8.10;100.00;100436.59;5115150;28;20027;-37
2022/12/22 08:03:58;;;;;;;39.13;23.67;;;;;;;8.11;100.00;100448.19;5115318;28;20118;-37
2022/12/22 08:06:24;;;;;;;40.67;23.33;;;;;;;8.10;100.00;100452.75;5115229;28;20027;-37
2022/12/22 08:08:50;;;;;;;;;;;;;;;8.16;100.00;100459.09;5115654;28;20044;-37
2022/12/22 08:11:15;;;;;;;35.63;21.85;;;;;;;8.12;100.00;100474.06;5114789;28;19907;-37
2022/12/22 08:13:42;;;;;;;37.90;22.55;;;;;;;8.11;100.00;100472.41;5114539;28;20387;-37
2022/12/22 08:16:11;;;;;;;31.70;20.23;;;;;;;8.08;100.00;100470.97;5114594;28;20464;-37
2022/12/22 08:18:37;;;;;;;39.45;22.02;;;;;;;8.06;100.00;100467.69;5114444;28;20028;-37
2022/12/22 08:21:04;;;;;;;32.33;20.65;;;;;;;7.98;100.00;100452.66;5114636;28;20043;-37
2022/12/22 08:23:30;;;;;;;28.67;19.55;;;;;;;8.07;100.00;100465.81;5115099;28;20375;-37
2022/12/22 08:26:13;;;;;;;31.98;19.58;;;;;;;8.09;100.00;100455.63;5114855;28;20035;-37
2022/12/22 08:29:06;;;;;;;38.85;21.15;;;;;;;8.09;100.00;100469.09;5115180;28;20038;-37
2022/12/22 08:31:32;;;;;;;32.20;20.88;;;;;;;7.97;100.00;100466.34;5114973;28;20062;-38
2022/12/22 08:34:01;;;;;;;36.10;22.10;;;;;;;8.06;100.00;100483.84;5114478;28;20051;-37
2022/12/22 08:36:29;;;;;;;31.20;20.58;;;;;;;8.04;100.00;100493.19;5114292;28;20427;-37
2022/12/22 08:38:55;;;;;;;32.17;21.27;;;;;;;7.98;100.00;100489.53;5113689;28;20388;-37
2022/12/22 08:41:48;;;;;;;31.30;20.33;;;;;;;8.05;100.00;100505.59;5114344;28;20039;-37
2022/12/22 08:44:05;;;;;;;30.17;19.60;;;;;;;8.06;100.00;100526.13;5114206;28;20042;-37
2022/12/22 08:46:31;;;;;;;34.10;21.93;;;;;;;8.06;100.00;100531.50;5114512;28;20035;-37
2022/12/22 08:48:56;;;;;;;36.03;22.87;;;;;;;8.07;100.00;100541.22;5114698;28;20050;-37
2022/12/22 08:51:22;;;;;;;31.77;21.10;;;;;;;8.01;100.00;100532.19;5114205;28;20698;-37
2022/12/22 08:53:47;;;;;;;32.35;21.23;;;;;;;8.06;100.00;100547.66;5114454;28;20115;-37
2022/12/22 08:56:12;;;;;;;31.60;20.87;;;;;;;8.05;100.00;100559.47;5112789;28;20444;-37
2022/12/22 08:58:39;;;;;;;32.93;21.03;;;;;;;8.02;100.00;100552.66;5114118;28;20036;-37
2022/12/22 09:01:04;;;;;;;;;;;;;;;8.08;100.00;100559.03;5114137;28;20106;-37
2022/12/22 09:03:29;;;;;;;28.55;18.85;;;;;;;8.00;100.00;100560.97;5113981;28;19950;-37
2022/12/22 09:06:03;;;;;;;32.50;19.50;;;;;;;8.00;100.00;100560.13;5114095;28;20031;-37
2022/12/22 09:08:29;;;;;;;32.90;19.23;;;;;;;7.88;100.00;100551.13;5113563;28;20057;-37
2022/12/22 09:10:54;;;;;;;31.57;20.30;;;;;;;7.84;100.00;100552.59;5113766;28;20028;-37
2022/12/22 09:13:19;;;;;;;33.43;20.63;;;;;;;7.82;100.00;100554.72;5113632;28;20024;-37
2022/12/22 09:15:44;;;;;;;29.70;19.57;;;;;;;7.79;100.00;100553.28;5113751;28;20388;-37
2022/12/22 09:18:10;;;;;;;28.43;19.63;;;;;;;7.85;100.00;100571.22;5114163;27;20201;-37
2022/12/22 09:20:35;;;;;;;27.83;20.00;;;;;;;7.77;100.00;100568.81;5114409;28;20031;-37
2022/12/22 09:23:00;;;;;;;32.30;20.40;;;;;;;7.85;100.00;100581.19;5113432;28;20135;-37
2022/12/22 09:25:26;;;;;;;29.27;20.20;;;;;;;7.86;100.00;100582.84;5113843;28;20023;-37
2022/12/22 09:27:51;;;;;;;30.30;19.48;;;;;;;7.89;100.00;100587.78;5113628;28;20032;-37
2022/12/22 09:30:17;;;;;;;31.83;20.10;;;;;;;7.88;100.00;100589.66;5113625;28;20494;-37
2022/12/22 09:32:42;;;;;;;32.20;20.63;;;;;;;7.91;100.00;100599.16;5113865;28;20038;-37
2022/12/22 09:35:08;;;;;;;32.77;21.60;;;;;;;7.97;100.00;100599.09;5113170;28;20215;-37
2022/12/22 09:37:33;;;;;;;30.73;20.45;;;;;;;8.02;100.00;100603.81;5113894;28;20500;-37
2022/12/22 09:39:58;;;;;;;35.23;22.27;;;;;;;8.08;100.00;100596.72;5113118;28;20489;-37
2022/12/22 09:42:24;;;;;;;35.40;22.53;;;;;;;8.11;100.00;100596.31;5113636;28;20448;-37
2022/12/22 09:44:50;;;;;;;31.40;20.70;;;;;;;8.15;100.00;100597.47;5113845;28;20146;-37
2022/12/22 09:47:37;;;;;;;32.33;20.30;;;;;;;8.18;100.00;100603.25;5112923;28;20073;-37
2022/12/22 09:50:05;;;;;;;32.25;21.33;;;;;;;8.12;100.00;100600.63;5113934;28;20024;-37
2022/12/22 09:52:33;;;;;;;30.02;20.27;;;;;;;8.10;100.00;100611.66;5113138;28;20055;-37
2022/12/22 09:55:00;;;;;;;33.13;20.58;;;;;;;8.05;100.00;100607.94;5112921;28;20488;-37
2022/12/22 09:57:31;;;;;;;30.02;19.27;;;;;;;8.09;100.00;100620.75;5113348;28;20024;-37
2022/12/22 10:00:26;;;;;;;30.52;19.52;;;;;;;8.11;100.00;100618.66;5113410;28;20108;-37
2022/12/22 10:03:20;;;;;;;29.85;19.00;;;;;;;8.12;100.00;100619.50;5030203;28;20148;-37
2022/12/22 10:06:01;;;;;;;31.80;18.85;;;;;;;8.17;100.00;100617.78;5030142;28;20061;-37
2022/12/22 10:08:31;;;;;;;31.58;20.48;;;;;;;8.16;100.00;100615.31;5030282;28;20568;-37
2022/12/22 10:10:56;;;;;;;30.40;19.35;;;;;;;8.22;100.00;100619.81;5030135;28;20033;-37
2022/12/22 10:13:22;;;;;;;29.90;20.23;;;;;;;8.31;100.00;100626.56;5030277;28;20052;-37
2022/12/22 10:15:48;;;;;;;34.55;20.98;;;;;;;8.36;100.00;100632.16;5030809;28;20509;-37
2022/12/22 10:18:19;;;;;;;32.47;20.90;;;;;;;8.34;100.00;100628.81;5030115;28;20044;-37
2022/12/22 10:20:47;;;;;;;31.98;20.50;;;;;;;8.36;100.00;100634.00;5030322;28;20041;-37
2022/12/22 10:23:28;;;;;;;28.05;19.90;;;;;;;8.34;100.00;100630.69;5030892;28;20052;-37
2022/12/22 10:25:56;;;;;;;26.98;19.30;;;;;;;8.27;100.00;100633.44;5030259;28;20092;-37
2022/12/22 10:28:25;;;;;;;27.67;19.48;;;;;;;8.07;100.00;100609.38;5030324;28;20533;-37
2022/12/22 10:31:08;;;;;;;24.02;17.95;;;;;;;8.22;100.00;100641.38;5030052;28;20389;-37
2022/12/22 10:33:33;;;;;;;22.60;17.48;;;;;;;8.22;100.00;100644.88;5030566;28;20045;-37
2022/12/22 10:35:58;;;;;;;24.20;16.80;;;;;;;8.19;100.00;100641.78;5031732;28;20025;-37
2022/12/22 10:38:29;;;;;;;25.33;17.73;;;;;;;8.25;100.00;100649.03;5047303;28;20344;-37
2022/12/22 10:40:57;;;;;;;24.42;17.10;;;;;;;8.34;100.00;100655.75;5116971;28;20081;-37
2022/12/22 10:43:50;;;;;;;19.67;14.23;;;;;;;8.39;100.00;100647.84;5116703;28;20094;-37
2022/12/22 10:46:16;;;;;;;19.75;12.68;;;;;;;8.35;100.00;100648.53;5034400;28;20512;-37
2022/12/22 10:48:41;;;;;;;16.60;11.77;;;;;;;8.26;100.00;100645.28;5034042;28;20042;-37
2022/12/22 10:51:10;;;;;;;16.40;11.40;;;;;;;8.23;100.00;100646.53;5033487;28;20064;-37
2022/12/22 10:53:51;;;;;;;19.70;11.95;;;;;;;8.12;100.00;100631.09;5033601;28;20162;-37
2022/12/22 10:56:24;;;;;;;20.08;13.07;;;;;;;8.23;100.00;100643.81;5033686;28;20022;-37
2022/12/22 10:59:14;;;;;;;18.58;12.98;;;;;;;8.27;100.00;100650.44;5034208;28;20030;-37
2022/12/22 11:01:39;;;;;;;17.73;11.90;;;;;;;8.36;100.00;100664.50;5033828;28;20072;-37
2022/12/22 11:04:33;;;;;;;17.00;11.83;;;;;;;8.37;100.00;100659.91;5034317;28;20089;-37
2022/12/22 11:07:08;;;;;;;14.98;11.05;;;;;;;8.29;100.00;100663.66;4974562;28;20051;-37
2022/12/22 11:09:33;;;;;;;15.38;10.82;;;;;;;8.12;100.00;100651.81;4974918;28;20381;-37
2022/12/22 11:12:16;;;;;;;16.47;10.63;;;;;;;8.02;100.00;100651.47;4975028;28;20045;-37
2022/12/22 11:14:58;;;;;;;15.65;10.27;;;;;;;8.02;100.00;100660.38;4974913;28;20042;-37
2022/12/22 11:17:45;;;;;;;16.88;11.07;;;;;;;8.11;100.00;100685.19;4974308;28;20499;-37
2022/12/22 11:20:46;;;;;;;;;;;;;;;8.17;100.00;100674.34;4974675;28;20053;-37
2022/12/22 11:23:36;;;;;;;16.88;11.98;;;;;;;8.18;100.00;100673.28;4983533;28;20064;-37
2022/12/22 11:26:23;;;;;;;20.42;12.15;;;;;;;8.23;100.00;100676.16;5013632;28;20041;-37
2022/12/22 11:29:15;;;;;;;17.13;11.75;;;;;;;8.29;100.00;100687.09;5013664;28;20037;-37
2022/12/22 11:31:55;;;;;;;16.15;10.55;;;;;;;8.21;100.00;100683.66;5013693;28;20066;-37
2022/12/22 11:35:01;;;;;;;16.80;10.27;;;;;;;8.12;100.00;100676.06;5013727;28;20389;-37
2022/12/22 11:37:48;;;;;;;17.05;10.57;;;;;;;8.12;100.00;100687.66;5013196;28;20050;-37
2022/12/22 11:40:25;;;;;;;;;;;;;;;8.20;100.00;100686.56;5013845;28;20034;-37
2022/12/22 11:43:14;;;;;;;15.30;10.48;;;;;;;8.19;100.00;100687.59;5034268;28;19912;-37
2022/12/22 11:45:57;;;;;;;18.23;11.15;;;;;;;8.24;100.00;100693.13;5092645;28;20488;-37
2022/12/22 11:48:33;;;;;;;18.73;11.50;;;;;;;8.29;100.00;100695.19;5093288;28;20036;-37
2022/12/22 11:51:29;;;;;;;19.55;14.65;;;;;;;8.30;100.00;100697.69;5092895;28;20042;-37
2022/12/22 11:54:21;;;;;;;20.73;16.50;;;;;;;8.33;100.00;100697.22;5093110;28;20131;-37
2022/12/22 11:56:58;;;;;;;24.77;18.23;;;;;;;8.28;100.00;100686.28;5100360;28;20119;-37
2022/12/22 11:59:45;;;;;;;21.42;18.05;;;;;;;8.34;100.00;100692.66;5115831;28;20102;-37
2022/12/22 12:02:19;;;;;;;23.75;19.48;;;;;;;8.32;100.00;100690.19;5115995;28;20119;-37
2022/12/22 12:05:18;;;;;;;24.02;20.17;;;;;;;8.32;100.00;100690.19;5115960;28;20380;-37
2022/12/22 12:08:12;;;;;;;25.25;20.77;;;;;;;8.31;100.00;100685.03;5115641;28;20364;-37
2022/12/22 12:10:52;;;;;;;28.60;22.20;;;;;;;8.24;100.00;100671.59;5115236;28;20019;-37
2022/12/22 12:13:21;;;;;;;24.63;20.05;;;;;;;8.19;100.00;100676.81;5113697;28;20437;-37
2022/12/22 12:15:53;;;;;;;24.75;20.83;;;;;;;8.24;100.00;100669.72;5115799;28;20031;-37
2022/12/22 12:18:38;;;;;;;24.88;21.00;;;;;;;8.28;100.00;100670.09;5115149;28;20118;-37
2022/12/22 12:21:28;;;;;;;23.52;19.30;;;;;;;8.31;100.00;100671.56;5114939;28;20110;-37
2022/12/22 12:24:05;;;;;;;23.70;20.67;;;;;;;8.33;100.00;100669.44;5115596;28;20028;-37
2022/12/22 12:26:40;;;;;;;23.75;19.50;;;;;;;8.36;100.00;100655.56;5114693;28;20032;-37
2022/12/22 12:29:17;;;;;;;22.08;19.35;;;;;;;8.41;100.00;100640.41;5115255;28;20039;-37
2022/12/22 12:31:51;;;;;;;23.25;18.95;;;;;;;8.54;100.00;100649.38;5114901;28;20054;-37
2022/12/22 12:34:18;;;;;;;22.05;17.77;;;;;;;8.58;100.00;100645.19;5114718;28;20023;-37
2022/12/22 12:37:09;;;;;;;25.08;18.40;;;;;;;8.68;100.00;100645.50;5114226;28;20066;-37
2022/12/22 12:40:06;;;;;;;19.83;15.52;;;;;;;8.72;100.00;100652.13;5103182;28;20052;-37
2022/12/22 12:42:36;;;;;;;17.27;13.77;;;;;;;8.76;100.00;100637.97;5051938;28;20509;-37
2022/12/22 12:45:04;;;;;;;18.13;13.02;;;;;;;8.74;100.00;100637.38;5052162;28;20041;-37
2022/12/22 12:47:31;;;;;;;15.13;13.25;;;;;;;8.75;100.00;100640.91;5051452;28;20036;-37
2022/12/22 12:50:27;;;;;;;18.45;14.35;;;;;;;8.71;100.00;100643.19;5051866;28;20127;-37
2022/12/22 12:52:56;;;;;;;14.73;13.23;;;;;;;8.67;100.00;100639.31;5051859;28;20112;-37
2022/12/22 12:55:29;;;;;;;15.90;14.23;;;;;;;8.59;100.00;100636.91;5051951;28;20186;-37
2022/12/22 12:57:56;;;;;;;16.65;14.20;;;;;;;8.56;100.00;100639.22;5050853;28;20056;-38
2022/12/22 13:00:33;;;;;;;15.93;13.82;;;;;;;8.56;100.00;100648.13;5051835;28;20131;-38
2022/12/22 13:02:58;;;;;;;15.63;14.02;;;;;;;8.55;100.00;100640.28;5051055;28;20037;-37
2022/12/22 13:05:31;;;;;;;16.67;14.80;;;;;;;8.52;100.00;100628.06;5051620;28;20040;-37
2022/12/22 13:08:03;;;;;;;18.75;14.90;;;;;;;8.57;100.00;100643.56;5050936;28;20029;-37
2022/12/22 13:10:30;;;;;;;17.42;15.57;;;;;;;8.51;100.00;100635.31;5050945;28;20049;-37
2022/12/22 13:12:56;;;;;;;19.20;15.80;;;;;;;8.51;100.00;100629.09;5050753;28;20033;-37
2022/12/22 13:15:36;;;;;;;18.75;14.70;;;;;;;8.57;100.00;100635.47;5050758;28;20064;-37
2022/12/22 13:18:23;;;;;;;17.25;15.43;;;;;;;8.46;100.00;100600.13;5051332;28;20068;-37
2022/12/22 13:21:11;;;;;;;16.42;14.25;;;;;;;8.62;100.00;100633.75;5031480;28;20041;-37
2022/12/22 13:23:40;;;;;;;17.55;15.07;;;;;;;8.64;100.00;100636.25;5014427;28;20465;-37
2022/12/22 13:26:33;;;;;;;16.92;14.43;;;;;;;8.63;100.00;100631.88;5031324;28;20041;-37
2022/12/22 13:29:07;;;;;;;16.08;14.15;;;;;;;8.59;100.00;100641.47;5031414;28;20068;-37
2022/12/22 13:31:43;;;;;;;17.88;14.80;;;;;;;8.50;100.00;100625.59;5030814;28;20071;-37
2022/12/22 13:34:21;;;;;;;16.17;14.10;;;;;;;8.54;100.00;100638.59;5031100;28;20095;-37
2022/12/22 13:36:48;;;;;;;16.70;13.73;;;;;;;8.49;100.00;100636.56;5031048;28;20461;-37
2022/12/22 13:39:14;;;;;;;16.55;14.48;;;;;;;8.49;100.00;100632.03;5030439;28;20103;-37
2022/12/22 13:41:45;;;;;;;;;;;;;;;8.56;100.00;100633.84;5030964;28;20080;-37
2022/12/22 13:44:14;;;;;;;19.33;15.80;;;;;;;8.41;100.00;100618.84;5030994;28;19909;-37
2022/12/22 13:46:41;;;;;;;17.30;14.45;;;;;;;8.33;100.00;100594.84;5030427;28;20146;-37
2022/12/22 13:49:12;;;;;;;17.15;15.00;;;;;;;8.38;100.00;100603.09;5030655;28;20037;-37
2022/12/22 13:51:38;;;;;;;18.85;16.73;;;;;;;8.47;100.00;100607.16;5030616;28;20050;-37
2022/12/22 13:54:12;;;;;;;20.67;16.23;;;;;;;8.47;100.00;100615.25;5030541;28;20482;-38
2022/12/22 13:56:45;;;;;;;18.60;16.20;;;;;;;8.46;100.00;100613.59;5030438;28;20053;-38
2022/12/22 13:59:38;;;;;;;20.23;17.92;;;;;;;8.45;100.00;100616.53;5114064;28;20364;-37
2022/12/22 14:02:10;;;;;;;16.00;13.93;;;;;;;8.45;100.00;100614.66;5113212;28;20043;-37
2022/12/22 14:04:37;;;;;;;14.85;13.27;;;;;;;8.41;100.00;100597.28;5113016;28;20099;-37
2022/12/22 14:07:17;;;;;;;17.30;15.38;;;;;;;8.50;100.00;100601.34;5113457;28;20032;-37
2022/12/22 14:09:48;;;;;;;18.73;15.35;;;;;;;8.41;100.00;100585.69;5114645;28;20444;-37
2022/12/22 14:12:17;;;;;;;17.45;15.55;;;;;;;8.45;100.00;100587.72;5117348;27;20030;-37
2022/12/22 14:14:44;;;;;;;14.65;13.07;;;;;;;8.46;100.00;100596.63;5117607;28;20491;-37
2022/12/22 14:17:31;;;;;;;12.25;10.70;;;;;;;8.46;100.00;100597.44;5117397;28;20051;-37
2022/12/22 14:19:58;;;;;;;11.45;9.60;;;;;;;8.41;100.00;100591.91;5117416;28;20466;-38
2022/12/22 14:22:26;;;;;;;12.50;9.68;;;;;;;8.25;100.00;100569.03;5117712;28;20058;-38
2022/12/22 14:25:00;;;;;;;10.45;8.95;;;;;;;8.35;100.00;100583.84;5117478;28;20103;-38
2022/12/22 14:27:40;;;;;;;11.90;10.02;;;;;;;8.33;100.00;100585.94;5117293;28;20032;-38
2022/12/22 14:30:18;;;;;;;10.75;9.00;;;;;;;8.32;100.00;100577.03;5117330;28;20390;-38
2022/12/22 14:32:49;;;;;;;13.05;9.63;;;;;;;8.26;100.00;100572.53;5117195;28;20028;-38
2022/12/22 14:35:20;;;;;;;11.35;9.23;;;;;;;8.17;100.00;100560.41;5117303;28;20030;-37
2022/12/22 14:38:14;;;;;;;14.77;10.52;;;;;;;8.20;100.00;100565.34;5116930;28;20055;-37
2022/12/22 14:40:42;;;;;;;10.00;9.00;;;;;;;8.06;100.00;100551.19;5105506;28;20131;-37
2022/12/22 14:43:16;;;;;;;11.15;9.00;;;;;;;8.19;100.00;100567.19;5116757;28;20027;-37
2022/12/22 14:45:43;;;;;;;10.35;9.23;;;;;;;8.14;100.00;100550.06;5117180;28;20126;-37
2022/12/22 14:48:15;;;;;;;11.63;8.93;;;;;;;8.18;100.00;100556.66;5116440;28;20053;-37
2022/12/22 14:50:48;;;;;;;10.30;9.20;;;;;;;8.14;100.00;100547.38;5116742;28;20024;-37
2022/12/22 14:53:15;;;;;;;10.77;9.15;;;;;;;8.15;100.00;100541.78;5117085;28;20046;-37
2022/12/22 14:55:47;;;;;;;11.73;9.30;;;;;;;8.14;100.00;100550.06;5116642;28;20028;-37
2022/12/22 14:58:20;;;;;;;9.98;8.57;;;;;;;8.06;100.00;100545.78;5116846;28;20023;-37
2022/12/22 15:00:48;;;;;;;9.85;7.57;;;;;;;8.05;100.00;100537.91;5116470;28;20027;-37
2022/12/22 15:03:33;;;;;;;10.52;9.45;;;;;;;8.11;100.00;100547.81;5116574;28;20369;-37
2022/12/22 15:06:27;;;;;;;12.27;9.77;;;;;;;8.11;100.00;100550.53;5116582;28;20565;-37
2022/12/22 15:09:10;;;;;;;10.38;9.32;;;;;;;8.06;100.00;100544.97;5116721;28;20028;-37
2022/12/22 15:11:40;;;;;;;10.20;8.95;;;;;;;8.04;100.00;100550.56;5116944;28;20027;-37